Time;durP1;ratioP1;P1;durP2;ratioP2;P2;SDS_P1;SDS_P2;PMS_P1;PMS_P2;Temp;Humidity;BMP_temperature;BMP_pressure;BME280_temperature;BME280_humidity;BME280_pressure;Samples;Min_cycle;Max_cycle;Signal;HPM_P1;HPM_P2
2022/05/20 00:00:58;;;;;;;5.83;4.70;;;;;;;23.89;55.86;97988.84;5068716;28;20499;-73
2022/05/20 00:03:23;;;;;;;10.33;5.20;;;;;;;23.88;56.70;97985.31;5070637;28;20175;-73
2022/05/20 00:05:49;;;;;;;7.83;4.70;;;;;;;23.80;57.85;97982.94;5066104;28;20428;-73
2022/05/20 00:08:15;;;;;;;6.93;4.50;;;;;;;23.86;56.65;97978.56;5058583;28;20203;-72
2022/05/20 00:10:40;;;;;;;5.23;4.07;;;;;;;23.96;56.68;97986.94;5069636;28;20179;-72
2022/05/20 00:13:06;;;;;;;5.53;4.60;;;;;;;24.00;56.36;97993.50;5070901;28;20190;-71
2022/05/20 00:15:31;;;;;;;6.97;4.90;;;;;;;24.06;56.38;97987.28;5070733;28;20660;-71
2022/05/20 00:17:57;;;;;;;7.20;4.20;;;;;;;24.12;56.52;97980.22;5070787;28;20198;-72
2022/05/20 00:20:26;;;;;;;6.33;4.33;;;;;;;24.13;56.25;97973.00;5070420;28;20191;-74
2022/05/20 00:22:52;;;;;;;10.27;4.80;;;;;;;24.00;56.83;97972.09;5044395;28;20202;-72
2022/05/20 00:28:03;;;;;;;5.20;4.70;;;;;;;23.98;56.94;97974.16;5070136;28;20213;-70
2022/05/20 00:30:29;;;;;;;9.83;5.10;;;;;;;23.98;57.04;97966.13;5070782;28;20421;-72
2022/05/20 00:32:54;;;;;;;5.50;4.90;;;;;;;23.99;56.93;97967.78;5070391;28;20615;-72
2022/05/20 00:35:21;;;;;;;4.80;4.40;;;;;;;24.01;56.60;97963.03;5065141;28;20444;-72
2022/05/20 00:37:46;;;;;;;6.20;5.30;;;;;;;23.88;57.34;97973.81;5060829;28;20219;-71
2022/05/20 00:40:15;;;;;;;10.37;4.90;;;;;;;23.84;57.47;97972.59;5072699;28;20439;-71
2022/05/20 00:42:42;;;;;;;11.23;4.77;;;;;;;23.68;57.60;97974.81;5074790;28;20597;-71
2022/05/20 00:45:10;;;;;;;8.37;5.60;;;;;;;23.63;58.11;97966.63;5067475;28;20544;-70
2022/05/20 00:47:35;;;;;;;5.00;4.50;;;;;;;23.64;58.17;97968.25;5063472;28;20458;-71
2022/05/20 00:50:05;;;;;;;5.03;4.57;;;;;;;23.60;58.45;97956.34;5068820;28;20516;-73
2022/05/20 00:52:33;;;;;;;12.23;6.30;;;;;;;23.39;58.46;97954.84;5056752;28;20220;-72
2022/05/20 00:55:05;;;;;;;6.53;5.00;;;;;;;23.31;58.99;97947.94;5073208;28;20783;-72
2022/05/20 00:57:43;;;;;;;9.33;6.10;;;;;;;23.32;58.85;97952.22;5073011;28;20448;-71
2022/05/20 01:00:16;;;;;;;6.50;5.03;;;;;;;23.36;58.74;97961.47;5070796;28;20842;-71
2022/05/20 01:02:42;;;;;;;5.40;4.80;;;;;;;23.29;58.71;97950.81;5074669;28;20478;-70
2022/05/20 01:05:15;;;;;;;13.87;5.20;;;;;;;23.12;58.85;97949.69;5067914;28;20923;-72
2022/05/20 01:07:41;;;;;;;8.83;5.40;;;;;;;23.11;59.17;97943.50;5066245;28;20580;-72
2022/05/20 01:10:07;;;;;;;7.53;5.40;;;;;;;23.03;58.98;97946.44;5067240;28;20433;-71
2022/05/20 01:12:33;;;;;;;7.10;5.13;;;;;;;23.06;59.38;97943.31;5073881;28;20194;-71
2022/05/20 01:14:58;;;;;;;7.57;4.93;;;;;;;23.15;58.70;97950.06;5073912;28;20424;-71
2022/05/20 01:17:24;;;;;;;6.83;4.93;;;;;;;23.19;59.32;97946.97;5073731;28;20202;-73
2022/05/20 01:19:54;;;;;;;12.23;5.00;;;;;;;23.23;58.80;97941.00;5074215;28;20183;-71
2022/05/20 01:22:54;;;;;;;6.83;4.70;;;;;;;23.29;58.67;97950.00;5067060;28;20210;-70
2022/05/20 01:25:22;;;;;;;7.77;4.90;;;;;;;23.39;57.76;97945.00;5072202;28;20523;-69
2022/05/20 01:27:48;;;;;;;13.10;4.73;;;;;;;23.26;58.25;97945.91;5065967;28;20465;-69
2022/05/20 01:30:20;;;;;;;7.20;4.87;;;;;;;23.29;58.66;97945.47;5070231;28;20468;-70
2022/05/20 01:32:46;;;;;;;5.40;4.90;;;;;;;23.35;58.25;97953.66;5073614;28;20433;-69
2022/05/20 01:35:15;;;;;;;8.73;4.50;;;;;;;23.34;58.27;97957.38;5068369;28;20502;-70
2022/05/20 01:37:40;;;;;;;12.53;4.47;;;;;;;23.35;57.88;97946.44;5065948;28;20631;-70
2022/05/20 01:40:07;;;;;;;7.70;4.67;;;;;;;23.39;57.63;97946.84;5065163;28;20509;-70
2022/05/20 01:42:37;;;;;;;7.00;5.13;;;;;;;23.38;57.35;97945.19;5073691;28;20553;-69
2022/05/20 01:45:08;;;;;;;12.97;5.10;;;;;;;23.31;56.88;97947.94;5071936;28;20432;-70
2022/05/20 01:47:41;;;;;;;7.97;4.97;;;;;;;23.31;57.23;97947.94;5071654;28;20491;-73
2022/05/20 01:50:09;;;;;;;6.23;4.70;;;;;;;23.35;57.01;97938.44;5071610;28;20460;-69
2022/05/20 01:52:34;;;;;;;9.73;5.07;;;;;;;23.34;56.71;97934.13;5072235;28;20429;-70
2022/05/20 01:55:28;;;;;;;8.60;4.73;;;;;;;23.35;56.78;97927.72;5073290;28;20519;-70
2022/05/20 01:58:12;;;;;;;7.97;5.30;;;;;;;23.15;56.66;97933.19;5061518;28;20214;-70
2022/05/20 02:00:39;;;;;;;7.63;4.90;;;;;;;23.20;56.78;97935.25;5070745;28;20509;-70
2022/05/20 02:03:14;;;;;;;8.00;5.00;;;;;;;23.29;57.10;97923.28;5071519;28;20477;-70
2022/05/20 02:05:39;;;;;;;6.33;4.80;;;;;;;23.32;57.19;97922.81;5068894;28;20434;-71
2022/05/20 02:08:13;;;;;;;10.07;5.07;;;;;;;23.27;57.00;97922.66;5065351;28;20536;-70
2022/05/20 02:10:48;;;;;;;4.90;4.40;;;;;;;23.28;57.27;97921.63;5072405;28;20171;-71
2022/05/20 02:13:15;;;;;;;6.40;5.20;;;;;;;23.29;57.16;97923.28;5055257;28;20439;-70
2022/05/20 02:15:52;;;;;;;11.33;5.20;;;;;;;23.10;58.11;97917.81;5071841;28;20490;-71
2022/05/20 02:18:22;;;;;;;5.60;4.77;;;;;;;23.08;57.97;97922.53;5071157;28;20488;-70
2022/05/20 02:20:49;;;;;;;5.60;4.90;;;;;;;22.96;58.04;97924.25;5065298;28;20551;-70
2022/05/20 02:23:20;;;;;;;8.50;5.30;;;;;;;22.94;58.14;97926.31;5070898;28;20508;-70
2022/05/20 02:26:05;;;;;;;6.83;5.60;;;;;;;22.77;59.03;97929.50;5071726;28;21141;-69
2022/05/20 02:28:43;;;;;;;5.53;5.10;;;;;;;22.79;59.23;97930.13;5072508;28;20452;-70
2022/05/20 02:31:12;;;;;;;6.63;5.30;;;;;;;22.72;59.36;97934.66;5072473;28;20416;-70
2022/05/20 02:33:37;;;;;;;10.53;5.20;;;;;;;22.74;58.92;97935.28;5071344;28;20460;-71
2022/05/20 02:36:06;;;;;;;18.00;5.27;;;;;;;22.60;59.47;97937.19;5066052;28;20427;-72
2022/05/20 02:38:32;;;;;;;9.20;4.90;;;;;;;22.63;59.25;97942.09;5060650;28;20206;-71
2022/05/20 02:40:57;;;;;;;8.00;5.07;;;;;;;22.58;59.42;97938.44;5072678;28;20868;-71
2022/05/20 02:43:23;;;;;;;7.10;4.90;;;;;;;22.59;59.60;97940.06;5072545;28;20504;-70
2022/05/20 02:45:50;;;;;;;6.60;4.87;;;;;;;22.70;59.19;97942.91;5064211;28;20213;-72
2022/05/20 02:48:18;;;;;;;8.10;5.30;;;;;;;22.68;59.59;97936.16;5070677;28;20415;-71
2022/05/20 02:50:43;;;;;;;6.70;5.67;;;;;;;22.57;59.73;97939.44;5076716;28;20432;-71
2022/05/20 02:53:09;;;;;;;6.10;5.30;;;;;;;22.63;59.62;97935.94;5070986;28;20740;-71
2022/05/20 02:55:35;;;;;;;5.73;4.97;;;;;;;22.62;59.52;97935.13;5063923;28;20178;-71
2022/05/20 02:58:00;;;;;;;8.77;5.13;;;;;;;22.54;60.10;97925.53;5063709;28;20198;-72
2022/05/20 03:05:55;;;;;;;8.30;5.83;;;;;;;22.67;59.58;97931.84;5063827;28;20436;-70
2022/05/20 03:08:21;;;;;;;12.33;5.73;;;;;;;22.65;59.30;97926.69;5058599;28;21118;-71
2022/05/20 03:10:47;;;;;;;7.60;5.50;;;;;;;22.57;59.05;97928.78;5072093;28;20756;-71
2022/05/20 03:13:12;;;;;;;7.37;5.13;;;;;;;22.55;58.77;97926.31;5060266;28;20261;-71
2022/05/20 03:15:39;;;;;;;6.40;5.70;;;;;;;22.49;58.49;97925.31;5072541;28;20186;-71
2022/05/20 03:18:06;;;;;;;8.37;6.07;;;;;;;22.52;58.55;97930.25;5071352;28;20198;-72
2022/05/20 03:20:32;;;;;;;10.77;6.20;;;;;;;22.47;58.59;97923.91;5072268;28;20507;-72
2022/05/20 03:22:58;;;;;;;8.50;5.30;;;;;;;22.54;58.45;97928.19;5061597;28;20933;-71
2022/05/20 03:25:24;;;;;;;6.23;5.50;;;;;;;22.54;58.58;97927.34;5062828;28;20428;-71
2022/05/20 03:27:50;;;;;;;8.97;5.77;;;;;;;22.66;58.62;97931.00;5071341;28;20206;-71
2022/05/20 03:30:16;;;;;;;7.93;5.37;;;;;;;22.75;58.58;97923.56;5046958;28;20183;-70
2022/05/20 03:32:41;;;;;;;9.27;6.23;;;;;;;22.74;57.90;97929.94;5040487;28;20846;-71
2022/05/20 03:35:08;;;;;;;8.17;5.50;;;;;;;22.69;57.90;97935.91;5064594;28;20478;-71
2022/05/20 03:37:33;;;;;;;6.80;6.13;;;;;;;22.70;57.98;97926.03;5062695;28;20720;-71
2022/05/20 03:39:59;;;;;;;6.57;5.70;;;;;;;22.59;58.05;97929.38;5059386;28;20453;-70
2022/05/20 03:42:25;;;;;;;11.53;6.10;;;;;;;22.63;58.04;97933.28;5062181;28;20208;-69
2022/05/20 03:44:51;;;;;;;7.20;6.50;;;;;;;22.70;57.88;97934.06;5071044;28;20581;-70
2022/05/20 03:47:17;;;;;;;8.30;5.97;;;;;;;22.79;57.66;97935.47;5058627;28;20457;-71
2022/05/20 03:49:42;;;;;;;8.53;6.23;;;;;;;22.76;57.29;97938.56;5047249;28;20179;-71
2022/05/20 03:52:08;;;;;;;6.00;5.50;;;;;;;22.71;57.55;97930.34;5043554;28;20911;-72
2022/05/20 03:54:34;;;;;;;11.17;6.30;;;;;;;22.74;58.26;97927.25;5063154;28;20186;-72
2022/05/20 03:57:00;;;;;;;10.03;7.57;;;;;;;22.78;58.59;97930.31;5052596;28;20263;-70
2022/05/20 03:59:27;;;;;;;10.60;7.27;;;;;;;22.90;58.11;97930.47;5045314;28;20186;-70
2022/05/20 04:01:58;;;;;;;11.47;6.20;;;;;;;23.00;57.36;97936.16;5067576;28;20958;-71
2022/05/20 04:04:31;;;;;;;10.60;6.17;;;;;;;23.12;57.69;97933.66;5059926;28;20429;-70
2022/05/20 04:07:01;;;;;;;6.57;5.93;;;;;;;23.02;58.27;97939.44;5061266;28;20976;-71
2022/05/20 04:09:26;;;;;;;10.13;5.50;;;;;;;22.99;58.59;97926.50;5059307;28;20421;-70
2022/05/20 04:11:57;;;;;;;7.97;6.37;;;;;;;22.95;58.77;97930.63;5068653;28;20421;-70
2022/05/20 04:14:24;;;;;;;8.17;5.73;;;;;;;22.88;59.12;97932.53;5067226;28;20179;-73
2022/05/20 04:16:55;;;;;;;6.63;5.73;;;;;;;22.89;58.65;97937.66;5064016;28;20416;-71
2022/05/20 04:19:20;;;;;;;7.33;5.73;;;;;;;;;;5058791;28;20424;-70
2022/05/20 04:21:46;;;;;;;8.13;5.33;;;;;;;22.86;59.32;97930.91;5064937;28;20472;-70
2022/05/20 04:24:11;;;;;;;7.80;6.50;;;;;;;22.94;59.03;97929.00;5069898;28;20178;-70
2022/05/20 04:26:37;;;;;;;7.80;7.00;;;;;;;22.99;59.13;97931.84;5054689;28;20178;-70
2022/05/20 04:29:02;;;;;;;12.53;7.00;;;;;;;23.09;58.69;97929.53;5070434;28;20566;-71
2022/05/20 04:31:28;;;;;;;8.80;6.97;;;;;;;23.10;57.97;97923.16;5071379;28;20567;-71
2022/05/20 04:33:53;;;;;;;15.47;6.30;;;;;;;23.05;58.57;97922.16;5049246;28;20187;-71
2022/05/20 04:36:19;;;;;;;7.63;6.50;;;;;;;23.06;58.92;97929.13;5065272;28;20194;-71
2022/05/20 04:38:44;;;;;;;10.50;6.37;;;;;;;23.02;58.75;97929.56;5070189;28;20202;-73
2022/05/20 04:49:21;;;;;;;7.63;5.23;;;;;;;22.95;60.15;97928.81;5069994;28;20428;-72
2022/05/20 04:51:47;;;;;;;8.50;6.37;;;;;;;23.05;59.86;97920.31;5059931;28;20924;-72
2022/05/20 04:56:56;;;;;;;6.60;5.97;;;;;;;23.06;59.99;97929.13;5053868;28;20194;-73
2022/05/20 04:59:23;;;;;;;11.43;6.20;;;;;;;23.03;60.36;97930.41;5061535;28;20423;-74
2022/05/20 05:01:49;;;;;;;10.00;6.50;;;;;;;23.01;60.37;97933.28;5065842;28;20198;-72
2022/05/20 05:04:16;;;;;;;11.30;6.00;;;;;;;23.02;61.36;97921.53;5045644;28;20430;-73
2022/05/20 05:06:41;;;;;;;10.53;6.20;;;;;;;23.12;60.69;97928.28;5063781;28;20186;-72
2022/05/20 05:09:07;;;;;;;9.47;5.97;;;;;;;23.06;60.73;97929.94;5055644;28;20445;-72
2022/05/20 05:11:32;;;;;;;7.27;6.37;;;;;;;23.13;61.40;97925.41;5047681;28;20234;-73
2022/05/20 05:13:58;;;;;;;10.23;6.50;;;;;;;23.20;60.79;97929.91;5051987;28;20248;-72
2022/05/20 05:16:23;;;;;;;9.83;5.80;;;;;;;23.25;59.81;97933.56;5059390;28;20257;-72
2022/05/20 05:18:49;;;;;;;6.10;5.17;;;;;;;23.22;59.21;97933.19;5063372;28;20214;-73
2022/05/20 05:21:15;;;;;;;12.53;5.80;;;;;;;23.32;58.96;97938.84;5067758;28;20725;-73
2022/05/20 05:23:41;;;;;;;5.30;4.50;;;;;;;23.37;57.62;97940.91;5047536;28;20856;-73
2022/05/20 05:26:06;;;;;;;6.37;5.07;;;;;;;23.46;57.05;97937.72;5070126;28;20420;-73
2022/05/20 05:28:32;;;;;;;6.50;4.90;;;;;;;23.53;56.29;97942.22;5052024;28;20336;-72
2022/05/20 05:30:58;;;;;;;6.00;4.70;;;;;;;23.59;55.85;97938.66;5044095;28;20609;-73
2022/05/20 05:33:24;;;;;;;5.83;4.20;;;;;;;23.69;55.74;97938.97;5047002;28;20263;-73
2022/05/20 05:35:51;;;;;;;5.50;4.70;;;;;;;23.78;56.07;97948.38;5065324;28;20481;-73
2022/05/20 05:38:16;;;;;;;6.60;4.67;;;;;;;23.90;55.95;97934.28;5072215;28;20893;-73
2022/05/20 05:40:42;;;;;;;5.77;4.60;;;;;;;24.03;56.37;97941.38;5073403;28;20460;-73
2022/05/20 05:43:07;;;;;;;6.30;4.87;;;;;;;24.10;56.16;97936.78;5072776;28;20186;-73
2022/05/20 05:45:34;;;;;;;5.63;5.13;;;;;;;24.21;56.05;97937.88;5073332;28;20186;-72
2022/05/20 05:48:08;;;;;;;7.97;4.73;;;;;;;24.29;55.78;97937.63;5057763;28;20199;-71
2022/05/20 05:50:38;;;;;;;9.43;5.60;;;;;;;24.39;55.78;97943.25;5051675;28;20425;-72
2022/05/20 05:53:06;;;;;;;8.80;4.73;;;;;;;24.54;55.67;97936.69;5056765;28;20464;-74
2022/05/20 05:55:32;;;;;;;8.10;6.67;;;;;;;24.68;55.60;97937.34;5037526;28;20935;-73
2022/05/20 05:57:57;;;;;;;12.70;4.97;;;;;;;24.73;53.72;97926.81;5065165;28;20494;-73
2022/05/20 06:00:23;;;;;;;8.37;4.57;;;;;;;24.82;52.50;97925.44;5040942;28;20187;-74
2022/05/20 06:02:49;;;;;;;8.43;4.40;;;;;;;24.83;51.44;97920.88;5040058;28;20273;-74
2022/05/20 06:05:14;;;;;;;7.93;3.70;;;;;;;24.92;50.45;97929.44;5055603;28;20218;-74
2022/05/20 06:07:40;;;;;;;6.10;4.07;;;;;;;24.88;49.34;97929.06;5072536;28;20669;-74
2022/05/20 06:10:06;;;;;;;4.40;3.90;;;;;;;25.05;49.20;97923.88;5072854;28;20244;-73
2022/05/20 06:12:33;;;;;;;5.93;3.70;;;;;;;25.15;48.89;97923.34;5072289;28;20520;-72
2022/05/20 06:15:06;;;;;;;4.43;4.03;;;;;;;25.24;48.29;97921.16;5073518;28;20209;-72
2022/05/20 06:17:32;;;;;;;7.80;3.17;;;;;;;25.41;48.57;97927.47;5064511;28;20465;-72
2022/05/20 06:19:58;;;;;;;9.93;4.03;;;;;;;25.42;47.82;97925.63;5065324;28;20474;-72
2022/05/20 06:22:23;;;;;;;6.03;3.70;;;;;;;25.65;47.60;97919.44;5066305;28;20478;-72
2022/05/20 06:24:49;;;;;;;7.27;3.80;;;;;;;25.67;46.93;97920.03;5050521;28;20186;-72
2022/05/20 06:27:14;;;;;;;6.87;4.10;;;;;;;25.92;47.12;97922.50;5048481;28;20200;-71
2022/05/20 06:29:40;;;;;;;7.90;4.03;;;;;;;25.92;45.94;97917.13;5035580;28;20191;-70
2022/05/20 06:32:05;;;;;;;3.70;3.30;;;;;;;26.13;46.45;97922.97;5040675;28;20229;-72
2022/05/20 06:39:48;;;;;;;6.80;4.27;;;;;;;26.29;46.09;97923.31;5061841;28;20170;-70
2022/05/20 06:40:09;;;;;;;4.23;3.30;;;;;;;26.53;44.13;97910.59;5067496;28;20784;-69
2022/05/20 06:42:34;;;;;;;4.50;3.33;;;;;;;26.60;44.28;97915.84;5064092;28;21031;-70
2022/05/20 06:45:00;;;;;;;5.40;3.50;;;;;;;26.73;44.45;97920.13;5063197;28;20434;-71
2022/05/20 06:47:25;;;;;;;4.83;3.30;;;;;;;26.97;44.40;97924.38;5064204;28;20214;-70
2022/05/20 06:49:51;;;;;;;4.53;3.40;;;;;;;27.14;44.37;97921.72;5063156;28;20180;-69
2022/05/20 06:52:16;;;;;;;6.90;3.60;;;;;;;27.20;43.33;97914.53;5063919;28;20584;-71
2022/05/20 06:54:42;;;;;;;5.47;3.90;;;;;;;27.36;42.74;97918.28;5072479;28;20214;-69
2022/05/20 06:57:07;;;;;;;4.03;3.30;;;;;;;27.46;42.76;97916.88;5071454;28;20563;-69
2022/05/20 06:59:33;;;;;;;6.20;3.37;;;;;;;27.50;42.02;97920.69;5070065;28;20184;-69
2022/05/20 07:02:00;;;;;;;3.83;3.37;;;;;;;27.65;42.68;97926.31;5071887;28;20299;-69
2022/05/20 07:04:29;;;;;;;5.13;3.50;;;;;;;27.72;42.38;97920.78;5051137;28;20186;-69
2022/05/20 07:06:57;;;;;;;5.77;3.73;;;;;;;27.94;42.28;97918.13;5071859;28;20428;-69
2022/05/20 07:09:22;;;;;;;4.47;3.20;;;;;;;28.12;42.36;97913.53;5070534;28;20511;-70
2022/05/20 07:11:47;;;;;;;5.93;3.83;;;;;;;28.31;41.70;97922.13;5071972;28;20570;-71
2022/05/20 07:14:13;;;;;;;5.70;3.00;;;;;;;28.41;41.41;97922.28;5071318;28;20178;-69
2022/05/20 07:16:38;;;;;;;13.63;4.33;;;;;;;28.48;41.12;97928.28;5071533;28;20193;-70
2022/05/20 07:19:05;;;;;;;10.33;3.50;;;;;;;28.32;40.64;97924.59;5053908;28;20208;-71
2022/05/20 07:21:30;;;;;;;7.10;3.67;;;;;;;28.33;40.47;97920.84;5071549;28;20210;-70
2022/05/20 07:23:56;;;;;;;6.80;3.30;;;;;;;28.49;40.59;97921.81;5060611;28;20456;-69
2022/05/20 07:26:21;;;;;;;7.73;3.37;;;;;;;28.73;40.75;97918.88;5070710;28;20215;-69
2022/05/20 07:28:47;;;;;;;7.33;3.43;;;;;;;28.83;40.67;97907.41;5063402;28;20202;-69
2022/05/20 07:31:13;;;;;;;3.83;3.47;;;;;;;28.73;39.48;97902.69;5057868;28;20665;-70
2022/05/20 07:33:38;;;;;;;6.67;3.50;;;;;;;28.99;40.27;97900.25;5071550;28;20178;-69
2022/05/20 07:36:06;;;;;;;6.23;3.27;;;;;;;28.78;39.89;97902.75;5066111;28;20184;-69
2022/05/20 07:38:32;;;;;;;4.10;3.70;;;;;;;29.05;40.80;97895.72;5071288;28;20554;-70
2022/05/20 07:40:58;;;;;;;4.30;3.80;;;;;;;29.23;39.96;97902.63;5068301;28;20553;-69
2022/05/20 07:43:25;;;;;;;3.83;3.40;;;;;;;29.27;39.50;97895.66;5069760;28;20175;-69
2022/05/20 07:45:51;;;;;;;3.90;3.30;;;;;;;29.38;39.04;97896.56;5070207;28;20970;-69
2022/05/20 07:48:18;;;;;;;7.17;3.70;;;;;;;29.40;38.34;97894.41;5061336;28;20500;-68
2022/05/20 07:50:47;;;;;;;3.67;3.30;;;;;;;29.57;38.12;97900.50;5065437;28;20989;-71
2022/05/20 07:53:22;;;;;;;6.60;3.27;;;;;;;29.66;37.93;97891.91;5067914;28;20424;-72
2022/05/20 07:55:58;;;;;;;6.00;3.50;;;;;;;29.85;37.61;97893.13;5071105;28;20452;-70
2022/05/20 07:58:29;;;;;;;6.70;3.17;;;;;;;29.87;37.01;97896.34;5070846;28;20432;-70
2022/05/20 08:00:58;;;;;;;9.20;3.10;;;;;;;30.15;37.28;97894.34;5068978;28;20456;-71
2022/05/20 08:06:11;;;;;;;3.97;2.90;;;;;;;30.18;36.85;97896.53;5061454;28;20502;-70
2022/05/20 08:08:37;;;;;;;4.13;3.73;;;;;;;30.43;35.94;97899.63;5064891;28;20444;-72
2022/05/20 08:11:02;;;;;;;6.90;3.17;;;;;;;30.66;36.11;97897.53;5059578;28;20499;-70
2022/05/20 08:13:28;;;;;;;4.77;3.00;;;;;;;30.40;35.05;97892.81;5071294;28;20177;-71
2022/05/20 08:15:53;;;;;;;3.90;3.30;;;;;;;30.70;35.16;97885.91;5071391;28;20273;-70
2022/05/20 08:18:19;;;;;;;7.10;3.80;;;;;;;30.84;34.77;97880.00;5053409;28;20204;-70
2022/05/20 08:20:44;;;;;;;4.80;3.30;;;;;;;30.97;34.28;97887.59;5071293;28;20178;-71
2022/05/20 08:23:10;;;;;;;5.33;3.20;;;;;;;31.06;34.79;97877.06;5062317;28;20261;-70
2022/05/20 08:25:36;;;;;;;8.50;3.27;;;;;;;31.33;34.90;97874.09;5071760;28;20189;-70
2022/05/20 08:28:03;;;;;;;6.63;3.70;;;;;;;31.55;34.04;97876.50;5070361;28;20198;-70
2022/05/20 08:30:29;;;;;;;6.93;3.50;;;;;;;31.71;34.09;97873.78;5070961;28;20416;-71
2022/05/20 08:32:54;;;;;;;11.13;3.53;;;;;;;31.95;34.28;97863.16;5070478;28;20519;-70
2022/05/20 08:35:24;;;;;;;4.83;3.30;;;;;;;31.94;33.59;97868.88;5067380;28;20178;-71
2022/05/20 08:37:49;;;;;;;9.90;3.20;;;;;;;31.97;33.38;97869.13;5062240;28;20271;-70
2022/05/20 08:40:24;;;;;;;3.93;3.27;;;;;;;31.86;33.33;97865.63;5065111;28;20428;-71
2022/05/20 08:42:51;;;;;;;4.20;3.60;;;;;;;32.09;33.35;97862.56;5070635;28;20288;-71
2022/05/20 08:45:19;;;;;;;4.20;3.50;;;;;;;32.02;33.06;97860.16;5069216;28;20436;-70
2022/05/20 08:47:46;;;;;;;5.40;3.33;;;;;;;32.11;33.37;97857.69;5050657;28;20446;-70
2022/05/20 08:50:20;;;;;;;9.40;3.53;;;;;;;32.05;32.41;97858.78;5066365;28;20427;-69
2022/05/20 08:52:46;;;;;;;6.90;3.57;;;;;;;31.88;32.52;97850.97;5070829;28;20427;-71
2022/05/20 08:55:13;;;;;;;7.53;3.40;;;;;;;32.23;32.13;97850.03;5062123;28;20946;-70
2022/05/20 08:57:40;;;;;;;6.17;3.20;;;;;;;32.43;30.79;97853.75;5071557;28;20531;-72
2022/05/20 09:00:09;;;;;;;6.90;2.97;;;;;;;32.55;31.19;97843.38;5062588;28;20441;-71
2022/05/20 09:02:35;;;;;;;8.83;3.73;;;;;;;32.73;30.05;97838.38;5073668;28;20441;-71
2022/05/20 09:05:12;;;;;;;5.93;3.57;;;;;;;32.87;30.39;97833.97;5051461;28;20788;-72
2022/05/20 09:08:06;;;;;;;6.50;3.30;;;;;;;32.83;30.15;97832.91;5069130;28;20939;-71
2022/05/20 09:10:49;;;;;;;7.63;3.83;;;;;;;32.92;29.85;97835.84;5067240;28;20434;-70
2022/05/20 09:16:31;;;;;;;4.63;3.27;;;;;;;33.02;29.79;97832.19;5073710;28;20437;-73
2022/05/20 09:19:11;;;;;;;9.67;3.67;;;;;;;33.09;29.97;97830.00;5057005;28;20537;-70
2022/05/20 09:21:40;;;;;;;5.73;3.43;;;;;;;33.38;29.34;97832.72;5061017;28;20456;-71
2022/05/20 09:24:17;;;;;;;6.97;3.70;;;;;;;33.24;30.00;97827.13;5072749;28;20440;-72
2022/05/20 09:27:01;;;;;;;4.90;3.30;;;;;;;33.59;29.81;97826.28;5066619;28;20796;-71
2022/05/20 09:29:46;;;;;;;10.90;3.00;;;;;;;33.57;29.33;97817.59;5057643;28;20585;-72
2022/05/20 09:32:23;;;;;;;5.70;3.33;;;;;;;33.46;29.47;97812.28;5065995;28;20422;-70
2022/05/20 09:34:56;;;;;;;5.97;3.53;;;;;;;33.49;28.37;97795.41;5060845;28;20440;-71
2022/05/20 09:37:26;;;;;;;6.67;3.50;;;;;;;33.77;28.27;97792.94;5071415;28;20593;-70
2022/05/20 09:39:52;;;;;;;10.20;3.60;;;;;;;33.75;27.92;97808.72;5065484;28;20425;-70
2022/05/20 09:42:20;;;;;;;8.57;3.53;;;;;;;33.31;28.80;97791.50;5073286;28;20459;-71
2022/05/20 09:44:47;;;;;;;9.40;3.73;;;;;;;33.40;28.56;97791.69;5073966;28;20729;-69
2022/05/20 09:47:19;;;;;;;7.27;3.40;;;;;;;33.85;29.17;97791.47;5061316;28;20503;-69
2022/05/20 09:49:52;;;;;;;8.47;3.40;;;;;;;33.99;28.43;97784.25;5062452;28;20433;-69
2022/05/20 09:52:32;;;;;;;6.43;3.60;;;;;;;34.15;28.72;97786.75;5070399;28;20435;-68
2022/05/20 09:55:02;;;;;;;7.90;3.90;;;;;;;34.09;28.27;97791.47;5062545;28;20428;-71
2022/05/20 09:57:37;;;;;;;6.37;3.63;;;;;;;33.92;27.92;97783.81;5072335;28;20452;-71
2022/05/20 10:00:15;;;;;;;3.77;3.43;;;;;;;34.05;27.84;97782.25;5070190;28;20424;-70
2022/05/20 10:02:59;;;;;;;10.47;3.47;;;;;;;34.39;27.65;97781.25;5073401;28;20890;-70
2022/05/20 10:05:27;;;;;;;7.33;3.50;;;;;;;34.52;27.89;97768.06;5067197;28;20578;-71
2022/05/20 10:08:01;;;;;;;3.50;3.10;;;;;;;34.90;28.61;97754.38;5064956;28;20593;-70
2022/05/20 10:11:12;;;;;;;9.00;3.23;;;;;;;35.11;27.95;97743.91;5055918;28;20432;-71
2022/05/20 10:13:53;;;;;;;8.23;3.30;;;;;;;34.76;27.34;97759.75;5072339;28;20424;-71
2022/05/20 10:16:37;;;;;;;8.10;3.30;;;;;;;34.73;26.77;97753.00;5071584;28;20531;-70
2022/05/20 10:19:15;;;;;;;7.00;2.90;;;;;;;35.22;26.53;97745.34;5049744;28;20488;-72
2022/05/20 10:21:58;;;;;;;8.03;3.80;;;;;;;35.20;26.41;97741.31;5065577;28;20542;-71
2022/05/20 10:24:47;;;;;;;6.27;3.30;;;;;;;35.49;25.35;97730.16;5071692;28;20421;-70
2022/05/20 10:27:31;;;;;;;6.03;3.17;;;;;;;35.59;25.42;97739.25;5071392;28;20543;-69
2022/05/20 10:32:55;;;;;;;10.07;2.70;;;;;;;35.75;23.65;97739.72;5053468;28;20508;-70
2022/05/20 10:35:25;;;;;;;7.40;2.90;;;;;;;35.76;23.08;97735.91;5067685;28;21986;-70
2022/05/20 10:38:00;;;;;;;5.37;2.70;;;;;;;35.88;23.29;97738.06;5071175;28;20443;-70
2022/05/20 10:40:33;;;;;;;6.60;3.30;;;;;;;36.10;22.75;97730.00;5068092;28;20477;-70
2022/05/20 10:48:34;;;;;;;8.67;3.70;;;;;;;36.15;22.74;97723.63;5072706;28;20509;-70
2022/05/20 10:49:18;;;;;;;10.07;2.70;;;;;;;36.42;22.75;97719.16;5053751;28;20448;-69
2022/05/20 10:52:09;;;;;;;9.53;3.10;;;;;;;36.46;22.19;97713.91;5072580;28;20930;-69
2022/05/20 10:54:53;;;;;;;6.80;2.87;;;;;;;36.59;21.76;97705.66;5072419;28;20588;-71
2022/05/20 10:57:43;;;;;;;5.90;2.70;;;;;;;36.76;21.76;97704.16;5071630;28;20863;-69
2022/05/20 11:00:14;;;;;;;8.50;2.70;;;;;;;36.83;22.59;97712.69;5069978;28;20427;-70
2022/05/20 11:03:17;;;;;;;5.07;2.60;;;;;;;36.79;22.19;97700.81;5072005;28;20558;-71
2022/05/20 11:05:46;;;;;;;6.50;3.10;;;;;;;36.92;22.50;97703.78;5067608;28;20420;-69
2022/05/20 11:08:21;;;;;;;12.17;2.80;;;;;;;36.62;22.15;97701.47;5070425;28;20460;-69
2022/05/20 11:11:05;;;;;;;9.20;2.83;;;;;;;36.57;22.16;97688.00;5072393;28;20806;-70
2022/05/20 11:14:09;;;;;;;9.77;3.10;;;;;;;36.32;21.96;97678.47;5072162;28;20423;-70
2022/05/20 11:17:06;;;;;;;9.33;2.90;;;;;;;36.17;22.36;97672.28;5071932;28;20441;-70
2022/05/20 11:19:55;;;;;;;6.93;2.93;;;;;;;35.86;22.99;97653.06;5055700;28;20428;-68
2022/05/20 11:22:59;;;;;;;6.10;3.17;;;;;;;36.15;22.42;97644.53;5070131;28;20460;-69
2022/05/20 11:25:31;;;;;;;9.03;3.20;;;;;;;36.46;21.77;97632.84;5055118;28;20452;-70
2022/05/20 11:28:15;;;;;;;6.97;2.40;;;;;;;36.67;23.01;97632.34;5067448;28;20522;-70
2022/05/20 11:30:54;;;;;;;7.93;2.70;;;;;;;37.00;22.01;97626.56;5071507;28;20412;-70
2022/05/20 11:33:29;;;;;;;13.27;4.10;;;;;;;36.99;22.06;97623.00;5069890;28;20435;-72
2022/05/20 11:36:31;;;;;;;14.70;3.40;;;;;;;37.10;21.95;97604.41;5066378;28;20431;-69
2022/05/20 11:39:26;;;;;;;6.23;3.20;;;;;;;36.86;22.09;97599.34;5071292;28;20841;-70
2022/05/20 11:42:08;;;;;;;6.80;2.87;;;;;;;36.56;21.89;97590.88;5068630;28;20460;-70
2022/05/20 11:45:09;;;;;;;2.97;2.67;;;;;;;36.66;22.45;97562.50;5071481;28;21035;-69
2022/05/20 11:48:09;;;;;;;5.73;2.90;;;;;;;36.67;21.95;97561.38;5065358;28;20447;-70
2022/05/20 11:50:54;;;;;;;11.83;3.30;;;;;;;36.64;21.99;97556.53;5064297;28;20502;-70
2022/05/20 11:53:45;;;;;;;5.20;2.70;;;;;;;36.31;22.20;97565.03;5069876;28;20428;-71
2022/05/20 11:56:33;;;;;;;9.27;2.90;;;;;;;35.95;22.86;97564.03;5069991;28;20426;-70
2022/05/20 11:59:02;;;;;;;10.70;3.03;;;;;;;36.09;22.68;97566.69;5068032;28;20941;-69
2022/05/20 12:01:30;;;;;;;5.13;2.80;;;;;;;36.13;22.65;97560.28;5064400;28;20463;-71
2022/05/20 12:04:08;;;;;;;6.37;3.20;;;;;;;35.97;23.43;97556.34;5067493;28;21150;-69
2022/05/20 12:06:51;;;;;;;5.70;2.60;;;;;;;35.94;22.77;97557.75;5062740;28;20914;-70
2022/05/20 12:09:41;;;;;;;9.40;3.47;;;;;;;35.64;23.05;97546.47;5069883;28;20521;-69
2022/05/20 12:12:37;;;;;;;6.17;2.90;;;;;;;35.56;23.21;97528.13;5070735;28;20416;-71
2022/05/20 12:15:12;;;;;;;9.40;3.10;;;;;;;35.74;23.36;97533.72;5069611;28;20422;-70
2022/05/20 12:17:39;;;;;;;5.73;3.10;;;;;;;35.31;23.02;97524.84;5059710;28;20532;-70
2022/05/20 12:26:18;;;;;;;8.37;2.97;;;;;;;35.95;23.20;97504.06;5071144;28;20427;-70
2022/05/20 12:28:43;;;;;;;9.23;2.83;;;;;;;36.27;22.76;97500.22;5069410;28;20488;-72